Time;durP1;ratioP1;P1;durP2;ratioP2;P2;SDS_P1;SDS_P2;PMS_P1;PMS_P2;Temp;Humidity;BMP_temperature;BMP_pressure;BME280_temperature;BME280_humidity;BME280_pressure;Samples;Min_cycle;Max_cycle;Signal;HPM_P1;HPM_P2
2022/05/14 00:01:00;;;;;;;2.25;1.30;;;18.10;54.70;;;;;;5070241;28;20417;-74
2022/05/14 00:03:29;;;;;;;2.25;1.33;;;18.00;54.50;;;;;;5070584;28;20058;-73
2022/05/14 00:05:56;;;;;;;2.35;1.58;;;18.30;56.80;;;;;;5070918;28;20060;-74
2022/05/14 00:08:23;;;;;;;3.10;1.65;;;19.00;51.10;;;;;;5070763;28;20063;-73
2022/05/14 00:13:34;;;;;;;3.83;1.63;;;18.90;56.30;;;;;;5107692;28;20040;-73
2022/05/14 00:16:01;;;;;;;4.20;1.65;;;19.00;51.10;;;;;;5090736;28;20056;-73
2022/05/14 00:18:29;;;;;;;2.85;1.33;;;18.90;51.00;;;;;;5094824;28;20054;-73
2022/05/14 00:20:56;;;;;;;2.15;1.40;;;18.50;54.80;;;;;;5094414;28;20477;-74
2022/05/14 00:23:22;;;;;;;2.33;1.52;;;18.60;56.50;;;;;;5095089;28;20051;-74
2022/05/14 00:25:49;;;;;;;3.70;1.52;;;18.60;55.70;;;;;;5095935;28;20437;-72
2022/05/14 00:28:16;;;;;;;2.90;1.42;;;18.80;55.80;;;;;;5085881;28;20082;-74
2022/05/14 00:30:43;;;;;;;2.17;1.55;;;19.40;57.40;;;;;;5074445;28;20048;-74
2022/05/14 00:33:09;;;;;;;2.88;1.60;;;19.20;55.90;;;;;;5074556;28;20524;-74
2022/05/14 00:35:37;;;;;;;2.58;1.58;;;18.90;51.10;;;;;;5075342;28;20051;-73
2022/05/14 00:38:05;;;;;;;1.88;1.30;;;19.00;55.80;;;;;;5074475;28;20052;-74
2022/05/14 00:40:32;;;;;;;2.10;1.35;;;18.50;55.30;;;;;;5073916;28;20044;-74
2022/05/14 00:42:59;;;;;;;3.78;1.42;;;18.00;55.50;;;;;;5074484;28;20191;-74
2022/05/14 00:45:26;;;;;;;2.22;1.45;;;19.00;55.60;;;;;;5091113;28;20052;-74
2022/05/14 00:47:54;;;;;;;2.15;1.50;;;18.90;55.90;;;;;;5094570;28;20055;-74
2022/05/14 00:50:23;;;;;;;2.83;1.45;;;19.00;55.30;;;;;;5128402;27;20403;-74
2022/05/14 00:52:51;;;;;;;1.90;1.35;;;18.90;51.10;;;;;;5094349;28;20146;-73
2022/05/14 00:55:18;;;;;;;3.45;1.63;;;18.90;51.10;;;;;;5094584;28;20051;-73
2022/05/14 00:57:45;;;;;;;3.20;1.50;;;18.90;55.20;;;;;;5128471;27;20082;-74
2022/05/14 01:00:14;;;;;;;2.83;1.42;;;18.90;51.10;;;;;;5092405;28;20044;-74
2022/05/14 01:02:41;;;;;;;2.10;1.38;;;18.90;55.80;;;;;;5093999;28;20420;-74
2022/05/14 01:05:09;;;;;;;4.47;1.35;;;18.80;57.10;;;;;;5093836;28;20056;-74
2022/05/14 01:07:37;;;;;;;2.20;1.38;;;19.60;55.60;;;;;;5128181;27;20062;-74
2022/05/14 01:10:07;;;;;;;2.40;1.63;;;18.90;51.10;;;;;;5093923;28;20056;-74
2022/05/14 01:12:34;;;;;;;2.17;1.30;;;18.90;55.60;;;;;;5093981;28;20159;-74
2022/05/14 01:15:09;;;;;;;2.60;1.45;;;19.20;55.70;;;;;;5093764;28;20054;-73
2022/05/14 01:17:36;;;;;;;2.15;1.45;;;19.00;55.40;;;;;;5092291;28;20560;-74
2022/05/14 01:20:03;;;;;;;3.35;1.75;;;18.90;51.20;;;;;;5093416;28;20192;-74
2022/05/14 01:22:35;;;;;;;2.35;1.30;;;19.80;57.60;;;;;;5128213;27;20596;-74
2022/05/14 01:27:52;;;;;;;2.70;1.50;;;18.90;55.40;;;;;;5126262;27;20079;-72
2022/05/14 01:30:19;;;;;;;3.70;1.48;;;18.90;51.20;;;;;;5093490;28;20070;-73
2022/05/14 01:32:46;;;;;;;2.17;1.40;;;18.90;56.20;;;;;;5093654;28;20507;-74
2022/05/14 01:35:14;;;;;;;3.80;1.65;;;19.10;55.90;;;;;;5093658;28;20060;-74
2022/05/14 01:37:41;;;;;;;2.17;1.40;;;18.70;55.60;;;;;;5094725;28;20052;-73
2022/05/14 01:40:09;;;;;;;2.55;1.45;;;18.90;55.40;;;;;;5082945;28;20045;-73
2022/05/14 01:42:36;;;;;;;2.65;1.30;;;18.20;55.00;;;;;;5074305;28;20055;-74
2022/05/14 01:45:05;;;;;;;3.58;1.50;;;18.90;51.20;;;;;;5073140;28;20127;-74
2022/05/14 01:47:34;;;;;;;1.90;1.20;;;19.30;55.50;;;;;;5073147;28;20135;-74
2022/05/14 01:50:01;;;;;;;2.10;1.50;;;19.10;55.80;;;;;;5072981;28;20055;-73
2022/05/14 01:52:28;;;;;;;2.50;1.50;;;18.90;51.80;;;;;;5073136;28;20501;-73
2022/05/14 01:54:55;;;;;;;2.45;1.40;;;19.30;56.00;;;;;;5093406;28;20047;-74
2022/05/14 01:57:21;;;;;;;2.75;1.35;;;18.80;51.20;;;;;;5093162;28;20052;-74
2022/05/14 01:59:48;;;;;;;2.20;1.50;;;19.10;54.20;;;;;;5092682;28;20576;-73
2022/05/14 02:02:16;;;;;;;2.20;1.40;;;18.60;56.60;;;;;;5093259;28;20052;-74
2022/05/14 02:04:43;;;;;;;1.83;1.30;;;18.10;56.60;;;;;;5093121;28;20438;-74
2022/05/14 02:07:10;;;;;;;2.95;1.58;;;18.90;55.60;;;;;;5092839;28;20055;-73
2022/05/14 02:09:36;;;;;;;2.92;1.42;;;19.00;55.40;;;;;;5090566;28;20071;-74
2022/05/14 02:12:04;;;;;;;2.58;1.48;;;19.00;56.10;;;;;;5094015;28;20056;-73
2022/05/14 02:14:30;;;;;;;1.92;1.25;;;18.80;51.20;;;;;;5092997;28;20083;-74
2022/05/14 02:16:57;;;;;;;2.20;1.33;;;19.10;55.70;;;;;;5093956;28;20040;-74
2022/05/14 02:19:25;;;;;;;2.97;1.50;;;18.90;55.70;;;;;;5093992;28;20048;-73
2022/05/14 02:21:52;;;;;;;1.60;1.30;;;19.50;56.00;;;;;;5092226;28;20058;-73
2022/05/14 02:24:19;;;;;;;2.05;1.38;;;18.80;51.30;;;;;;5092808;28;20048;-73
2022/05/14 02:26:45;;;;;;;3.25;1.55;;;18.90;56.80;;;;;;5073998;28;20052;-74
2022/05/14 02:29:12;;;;;;;2.60;1.40;;;19.00;56.50;;;;;;5072124;28;20048;-74
2022/05/14 02:31:39;;;;;;;2.30;1.40;;;18.80;51.30;;;;;;5071691;28;20485;-73
2022/05/14 02:34:05;;;;;;;2.97;1.50;;;18.70;56.30;;;;;;5072415;28;20083;-74
2022/05/14 02:36:33;;;;;;;3.08;1.48;;;19.10;55.40;;;;;;5073182;28;20055;-73
2022/05/14 02:39:00;;;;;;;2.10;1.40;;;18.70;57.60;;;;;;5072024;28;20060;-74
2022/05/14 02:41:27;;;;;;;2.13;1.40;;;18.90;55.70;;;;;;5074974;28;20382;-74
2022/05/14 02:43:54;;;;;;;2.05;1.40;;;18.70;56.30;;;;;;5093622;28;20048;-74
2022/05/14 02:46:21;;;;;;;1.98;1.15;;;19.00;55.90;;;;;;5092404;28;20071;-74
2022/05/14 02:48:48;;;;;;;3.17;1.50;;;18.70;56.20;;;;;;5092126;28;20052;-74
2022/05/14 02:51:14;;;;;;;2.72;1.50;;;18.80;51.30;;;;;;5091935;28;20058;-74
2022/05/14 02:53:42;;;;;;;2.22;1.20;;;18.80;51.30;;;;;;5076012;28;20064;-72
2022/05/14 02:56:09;;;;;;;2.67;1.70;;;18.80;51.30;;;;;;5126141;27;20056;-73
2022/05/14 03:01:16;;;;;;;2.35;1.40;;;18.90;56.70;;;;;;5074341;28;20063;-73
2022/05/14 03:03:43;;;;;;;2.42;1.33;;;19.20;55.70;;;;;;5091886;28;20060;-73
2022/05/14 03:06:10;;;;;;;3.47;1.40;;;18.70;51.40;;;;;;5085987;28;20052;-74
2022/05/14 03:08:37;;;;;;;3.05;1.52;;;18.80;56.80;;;;;;5071596;28;20485;-73
2022/05/14 03:11:05;;;;;;;2.28;1.42;;;18.70;51.40;;;;;;5071258;28;20056;-73
2022/05/14 03:13:31;;;;;;;3.13;1.30;;;18.70;51.40;;;;;;5072726;28;20054;-72
2022/05/14 03:15:58;;;;;;;3.55;1.65;;;18.70;51.40;;;;;;5071460;28;20484;-73
2022/05/14 03:18:25;;;;;;;2.30;1.30;;;18.80;55.90;;;;;;5070967;28;20062;-74
2022/05/14 03:20:51;;;;;;;2.78;1.63;;;18.70;51.40;;;;;;5072130;28;20048;-72
2022/05/14 03:23:18;;;;;;;2.10;1.40;;;18.50;56.10;;;;;;5085580;28;20048;-74
2022/05/14 03:25:45;;;;;;;3.80;1.40;;;18.90;56.20;;;;;;5091327;28;20056;-73
2022/05/14 03:28:13;;;;;;;2.13;1.40;;;18.70;51.40;;;;;;5091298;28;20066;-73
2022/05/14 03:30:40;;;;;;;3.20;1.40;;;18.50;55.60;;;;;;5091113;28;20488;-73
2022/05/14 03:33:06;;;;;;;3.55;1.50;;;18.90;56.50;;;;;;5091049;28;20056;-73
2022/05/14 03:35:33;;;;;;;3.30;1.50;;;18.20;56.30;;;;;;5125654;27;20056;-74
2022/05/14 03:38:00;;;;;;;3.03;1.70;;;18.60;55.90;;;;;;5089667;28;20402;-72
2022/05/14 03:40:27;;;;;;;4.25;1.60;;;18.70;56.30;;;;;;5090760;28;20052;-74
2022/05/14 03:42:53;;;;;;;2.83;1.50;;;18.70;56.00;;;;;;5092141;28;20040;-74
2022/05/14 03:45:21;;;;;;;3.10;1.63;;;18.90;55.80;;;;;;5091381;28;20131;-74
2022/05/14 03:47:48;;;;;;;2.58;1.55;;;18.40;56.00;;;;;;5125184;27;20078;-72
2022/05/14 03:50:15;;;;;;;4.00;1.60;;;18.70;51.50;;;;;;5091064;28;20056;-74
2022/05/14 03:52:42;;;;;;;4.80;1.52;;;18.90;56.10;;;;;;5090171;28;20082;-74
2022/05/14 03:55:09;;;;;;;2.45;1.40;;;18.70;51.50;;;;;;5081175;28;20049;-74
2022/05/14 03:57:36;;;;;;;2.67;1.60;;;18.70;56.10;;;;;;5071971;28;20044;-74
2022/05/14 04:00:03;;;;;;;3.05;1.60;;;18.60;51.50;;;;;;5070624;28;20056;-73
2022/05/14 04:02:32;;;;;;;3.92;1.60;;;18.70;51.50;;;;;;5070409;28;20574;-74
2022/05/14 04:04:58;;;;;;;3.00;1.55;;;19.10;56.30;;;;;;5070772;28;20059;-74
2022/05/14 04:07:25;;;;;;;4.47;1.77;;;18.70;55.90;;;;;;5070812;28;20063;-74
2022/05/14 04:09:52;;;;;;;3.38;1.60;;;18.60;56.30;;;;;;5071699;28;20079;-74
2022/05/14 04:12:19;;;;;;;2.90;1.55;;;18.80;55.70;;;;;;5089361;28;20044;-73
2022/05/14 04:14:45;;;;;;;5.13;1.60;;;18.60;54.60;;;;;;5090955;28;20060;-73
2022/05/14 04:17:12;;;;;;;2.83;1.55;;;18.60;56.00;;;;;;5091753;28;20048;-74
2022/05/14 04:19:40;;;;;;;3.65;1.60;;;18.70;51.50;;;;;;5090698;28;20726;-74
2022/05/14 04:22:07;;;;;;;3.17;1.50;;;18.60;57.10;;;;;;5090464;28;20052;-74
2022/05/14 04:24:33;;;;;;;2.60;1.40;;;18.70;56.00;;;;;;5090682;28;20062;-74
2022/05/14 04:27:00;;;;;;;2.20;1.45;;;18.70;56.30;;;;;;5090212;28;20399;-74
2022/05/14 04:29:27;;;;;;;3.63;1.50;;;18.70;51.50;;;;;;5090685;28;20063;-73
2022/05/14 04:31:54;;;;;;;5.57;1.88;;;18.60;51.50;;;;;;5124703;28;20054;-73
2022/05/14 04:34:21;;;;;;;3.22;1.83;;;18.80;56.20;;;;;;5090467;28;20052;-74
2022/05/14 04:36:49;;;;;;;4.05;1.50;;;18.70;51.00;;;;;;5090762;28;20057;-73
2022/05/14 04:39:15;;;;;;;5.50;1.70;;;18.70;51.50;;;;;;5090595;28;20056;-73
2022/05/14 04:41:42;;;;;;;3.20;1.60;;;18.80;55.90;;;;;;5091457;28;20407;-73
2022/05/14 04:44:09;;;;;;;3.33;1.45;;;17.50;56.50;;;;;;5074130;28;20130;-74
2022/05/14 04:46:36;;;;;;;3.95;1.80;;;19.40;56.70;;;;;;5071725;28;20440;-73
2022/05/14 04:49:03;;;;;;;3.50;1.77;;;18.70;51.50;;;;;;5070085;28;20044;-74
2022/05/14 04:51:29;;;;;;;2.85;2.00;;;18.60;51.40;;;;;;5070215;28;20045;-74
2022/05/14 04:53:57;;;;;;;3.85;1.50;;;18.50;55.70;;;;;;5070404;28;20056;-73
2022/05/14 04:56:24;;;;;;;3.35;1.52;;;18.80;56.10;;;;;;5071044;28;20045;-73
2022/05/14 04:58:51;;;;;;;4.72;2.08;;;19.80;56.90;;;;;;5076336;28;20050;-73
2022/05/14 05:01:17;;;;;;;3.90;1.75;;;19.50;57.90;;;;;;5091244;28;20139;-74
2022/05/14 05:03:43;;;;;;;3.50;1.70;;;18.10;55.70;;;;;;5092162;28;20058;-73
2022/05/14 05:06:14;;;;;;;3.92;1.70;;;18.90;56.60;;;;;;5094286;28;20138;-74
2022/05/14 05:08:42;;;;;;;4.22;1.80;;;18.50;56.30;;;;;;5094250;28;20048;-74
2022/05/14 05:11:10;;;;;;;4.22;2.08;;;18.70;51.40;;;;;;5093762;28;20048;-73
2022/05/14 05:13:37;;;;;;;6.18;2.20;;;18.70;51.40;;;;;;5093965;28;20127;-73
2022/05/14 05:16:04;;;;;;;4.30;1.75;;;19.30;56.30;;;;;;5091948;28;20067;-74
2022/05/14 05:18:31;;;;;;;4.68;1.80;;;18.40;56.00;;;;;;5127823;27;20131;-74
2022/05/14 05:20:58;;;;;;;2.83;1.42;;;18.60;56.00;;;;;;5093792;28;20127;-73
2022/05/14 05:23:25;;;;;;;3.80;1.80;;;18.70;51.40;;;;;;5093874;28;20145;-73
2022/05/14 05:25:52;;;;;;;3.58;1.50;;;18.50;55.70;;;;;;5094780;28;20044;-73
2022/05/14 05:28:20;;;;;;;3.42;1.60;;;17.90;55.50;;;;;;5092207;28;20423;-73
2022/05/14 05:30:47;;;;;;;4.97;1.85;;;18.70;56.00;;;;;;5073211;28;20052;-72
2022/05/14 05:33:14;;;;;;;4.93;1.90;;;19.30;56.60;;;;;;5074390;28;20485;-73
2022/05/14 05:35:41;;;;;;;6.60;1.92;;;18.80;51.40;;;;;;5073419;28;20052;-73
2022/05/14 05:38:08;;;;;;;3.72;1.80;;;19.00;55.90;;;;;;5086331;28;20385;-73
2022/05/14 05:40:36;;;;;;;3.28;1.60;;;18.90;55.70;;;;;;5093247;28;20507;-73
2022/05/14 05:43:04;;;;;;;3.20;1.65;;;19.00;57.00;;;;;;5094615;28;20040;-73
2022/05/14 05:45:33;;;;;;;3.78;1.70;;;18.80;55.90;;;;;;5079319;28;20083;-72
2022/05/14 05:47:59;;;;;;;4.55;1.75;;;18.40;55.70;;;;;;5074064;28;20044;-72
2022/05/14 05:50:26;;;;;;;4.60;1.73;;;18.70;56.10;;;;;;5072307;28;20052;-73
2022/05/14 05:52:54;;;;;;;4.03;1.75;;;18.90;58.00;;;;;;5092728;28;20056;-73
2022/05/14 05:58:05;;;;;;;3.85;2.13;;;;;;;;;;5094106;28;20047;-73
2022/05/14 06:00:33;;;;;;;3.67;2.03;;;18.90;50.90;;;;;;5091111;28;20062;-72
2022/05/14 06:03:00;;;;;;;3.55;1.90;;;18.90;51.40;;;;;;5093843;28;20094;-73
2022/05/14 06:05:27;;;;;;;4.45;1.60;;;18.90;56.30;;;;;;5092953;28;20051;-73
2022/05/14 06:07:53;;;;;;;3.17;1.70;;;19.00;56.10;;;;;;5094142;28;20130;-73
2022/05/14 06:10:22;;;;;;;3.40;1.52;;;19.00;56.10;;;;;;5093678;28;20503;-73
2022/05/14 06:12:48;;;;;;;4.05;1.75;;;19.00;51.40;;;;;;5092862;28;20071;-73
2022/05/14 06:15:18;;;;;;;3.90;1.90;;;18.90;56.60;;;;;;5082213;28;20391;-73
2022/05/14 06:17:46;;;;;;;3.03;1.70;;;19.50;56.40;;;;;;5073359;28;20055;-73
2022/05/14 06:20:15;;;;;;;3.78;1.60;;;18.70;55.40;;;;;;5086354;28;20404;-71
2022/05/14 06:22:41;;;;;;;3.78;1.80;;;19.30;55.60;;;;;;5092262;28;20473;-72
2022/05/14 06:25:09;;;;;;;6.43;2.42;;;19.30;55.40;;;;;;5092527;28;20148;-71
2022/05/14 06:27:35;;;;;;;3.55;1.80;;;19.30;55.30;;;;;;5126529;27;20385;-72
2022/05/14 06:30:02;;;;;;;7.05;1.85;;;19.30;51.10;;;;;;5091574;28;20052;-72
2022/05/14 06:32:29;;;;;;;8.05;2.17;;;19.30;51.00;;;;;;5092534;28;20051;-72
2022/05/14 06:34:57;;;;;;;4.20;1.60;;;19.40;56.00;;;;;;5126649;27;20105;-73
2022/05/14 06:37:24;;;;;;;4.13;1.80;;;19.60;55.00;;;;;;5092590;28;20511;-72
2022/05/14 06:39:50;;;;;;;8.75;2.53;;;19.50;50.80;;;;;;5092180;28;20052;-72
2022/05/14 06:42:18;;;;;;;5.55;1.90;;;18.80;55.20;;;;;;5092102;28;20058;-72
2022/05/14 06:44:44;;;;;;;4.18;1.80;;;19.70;50.70;;;;;;5092329;28;20481;-72
2022/05/14 06:47:11;;;;;;;4.32;1.70;;;19.80;50.60;;;;;;5090428;28;20066;-72
2022/05/14 06:49:38;;;;;;;6.70;2.00;;;20.10;54.90;;;;;;5092957;28;20059;-72
2022/05/14 06:52:07;;;;;;;4.88;1.90;;;19.90;50.30;;;;;;5092742;28;20044;-72
2022/05/14 06:54:33;;;;;;;5.15;1.70;;;20.00;50.20;;;;;;5126404;27;20056;-72
2022/05/14 06:57:00;;;;;;;5.32;2.00;;;20.20;55.50;;;;;;5093171;28;20382;-72
2022/05/14 06:59:27;;;;;;;5.25;1.83;;;20.20;54.10;;;;;;5092946;28;20402;-71
2022/05/14 07:01:54;;;;;;;5.07;1.80;;;20.30;54.70;;;;;;5091558;28;20140;-72
2022/05/14 07:07:06;;;;;;;4.30;2.00;;;20.40;55.70;;;;;;5125877;27;20055;-72
2022/05/14 07:09:33;;;;;;;6.10;1.95;;;20.50;55.10;;;;;;5091698;28;20481;-72
2022/05/14 07:12:03;;;;;;;6.15;2.28;;;21.30;54.00;;;;;;5091555;28;20127;-72
2022/05/14 07:14:30;;;;;;;4.57;1.80;;;20.70;49.20;;;;;;5091905;28;20060;-72
2022/05/14 07:16:57;;;;;;;4.03;1.90;;;21.60;54.90;;;;;;5091842;28;20051;-72
2022/05/14 07:19:24;;;;;;;4.97;1.90;;;21.50;53.30;;;;;;5081053;28;20058;-72
2022/05/14 07:21:52;;;;;;;4.00;1.85;;;20.30;54.50;;;;;;5090353;28;20052;-72
2022/05/14 07:24:21;;;;;;;3.88;1.52;;;21.00;49.00;;;;;;5091263;28;20051;-72
2022/05/14 07:26:49;;;;;;;4.60;1.70;;;21.00;48.90;;;;;;5091519;28;20127;-72
2022/05/14 07:29:17;;;;;;;5.00;1.90;;;21.30;53.40;;;;;;5092213;28;20048;-72
2022/05/14 07:31:44;;;;;;;4.90;1.80;;;21.10;48.80;;;;;;5091007;28;20051;-73
2022/05/14 07:34:11;;;;;;;5.68;2.00;;;21.30;53.30;;;;;;5091386;28;20052;-73
2022/05/14 07:36:39;;;;;;;4.30;1.90;;;22.40;55.70;;;;;;5089621;28;20048;-74
2022/05/14 07:39:06;;;;;;;6.22;2.00;;;21.30;48.70;;;;;;5091211;28;20560;-73
2022/05/14 07:41:35;;;;;;;4.70;1.92;;;21.30;53.20;;;;;;5092209;28;20044;-73
2022/05/14 07:44:01;;;;;;;3.55;1.75;;;21.40;54.50;;;;;;5091189;28;20052;-74
2022/05/14 07:46:31;;;;;;;5.30;2.20;;;20.70;52.10;;;;;;5090974;28;20063;-72
2022/05/14 07:48:57;;;;;;;5.13;2.10;;;21.50;53.80;;;;;;5090877;28;20052;-73
2022/05/14 07:51:25;;;;;;;6.85;2.20;;;21.50;48.50;;;;;;5083915;28;20060;-74
2022/05/14 07:53:52;;;;;;;5.45;1.95;;;21.20;54.20;;;;;;5071023;28;20052;-74
2022/05/14 07:56:19;;;;;;;6.03;2.20;;;21.50;48.50;;;;;;5070906;28;20139;-73
2022/05/14 07:58:47;;;;;;;6.60;2.45;;;21.30;53.00;;;;;;5071967;28;20504;-73
2022/05/14 08:01:14;;;;;;;7.40;2.72;;;21.40;53.90;;;;;;5080274;28;20125;-73
2022/05/14 08:03:41;;;;;;;9.85;2.80;;;21.60;48.50;;;;;;5090350;28;20051;-73
2022/05/14 08:06:09;;;;;;;6.63;2.50;;;21.70;53.00;;;;;;5090778;28;20091;-73
2022/05/14 08:08:37;;;;;;;9.27;2.85;;;20.70;53.80;;;;;;5090047;28;20488;-73
2022/05/14 08:11:04;;;;;;;8.10;3.03;;;21.70;48.50;;;;;;5090570;28;20135;-73
2022/05/14 08:13:34;;;;;;;7.75;2.88;;;21.90;54.60;;;;;;5107677;28;20454;-74
2022/05/14 08:16:02;;;;;;;7.80;2.60;;;21.80;48.50;;;;;;5091166;28;20087;-72
2022/05/14 08:18:29;;;;;;;10.82;3.10;;;21.80;48.50;;;;;;5091093;28;20048;-72
2022/05/14 08:20:55;;;;;;;10.73;2.47;;;21.80;48.40;;;;;;5089975;28;20175;-72
2022/05/14 08:26:08;;;;;;;9.95;3.03;;;21.80;52.60;;;;;;5104703;28;20135;-72
2022/05/14 08:28:35;;;;;;;9.23;2.30;;;21.00;53.20;;;;;;5070412;28;20048;-72
2022/05/14 08:31:03;;;;;;;8.73;2.20;;;22.00;52.60;;;;;;5071223;28;20405;-72
2022/05/14 08:33:30;;;;;;;8.18;2.70;;;22.10;52.50;;;;;;5070616;28;20059;-69
2022/05/14 08:35:56;;;;;;;8.80;3.17;;;21.70;52.20;;;;;;5070310;28;20408;-68
2022/05/14 08:38:23;;;;;;;13.13;4.40;;;21.90;54.90;;;;;;5081290;28;20055;-68
2022/05/14 08:40:55;;;;;;;9.57;2.67;;;22.20;52.80;;;;;;5095245;28;20446;-74
2022/05/14 08:43:24;;;;;;;9.27;2.78;;;21.70;52.80;;;;;;5102070;28;20047;-73
2022/05/14 08:45:51;;;;;;;11.20;3.20;;;22.00;53.40;;;;;;5104381;28;20126;-73
2022/05/14 08:48:22;;;;;;;11.70;3.03;;;21.90;52.40;;;;;;5103154;28;20412;-73
2022/05/14 08:50:53;;;;;;;9.55;2.85;;;21.80;48.60;;;;;;5096041;28;20052;-73
2022/05/14 08:53:20;;;;;;;5.97;2.58;;;21.80;48.50;;;;;;5109156;28;20169;-73
2022/05/14 08:55:50;;;;;;;8.23;2.63;;;21.80;48.50;;;;;;5102408;28;20051;-73
2022/05/14 08:58:20;;;;;;;7.22;2.95;;;21.80;48.50;;;;;;5100755;28;20055;-73
2022/05/14 09:00:47;;;;;;;10.20;3.13;;;21.80;48.50;;;;;;5102838;28;20052;-73
2022/05/14 09:03:14;;;;;;;7.15;2.45;;;22.30;53.70;;;;;;5100889;28;20046;-73
2022/05/14 09:05:43;;;;;;;7.53;2.50;;;21.80;48.50;;;;;;5104090;28;20060;-74
2022/05/14 09:08:10;;;;;;;5.72;2.33;;;21.90;52.90;;;;;;5099029;28;20051;-74
2022/05/14 09:10:39;;;;;;;6.88;2.80;;;21.80;48.50;;;;;;5104103;28;20508;-73
2022/05/14 09:13:11;;;;;;;7.90;2.58;;;21.90;52.90;;;;;;5101195;28;20048;-74
2022/05/14 09:15:43;;;;;;;6.93;2.53;;;21.80;48.50;;;;;;5101817;28;20061;-74
2022/05/14 09:18:11;;;;;;;6.63;2.47;;;22.00;53.30;;;;;;5101412;28;20054;-74
2022/05/14 09:20:44;;;;;;;5.53;2.20;;;21.80;53.60;;;;;;5103730;28;20492;-74
2022/05/14 09:23:11;;;;;;;5.53;2.38;;;21.80;48.60;;;;;;5100473;28;20137;-74
2022/05/14 09:25:39;;;;;;;5.10;2.17;;;21.80;52.80;;;;;;5105160;28;20056;-74
2022/05/14 09:28:08;;;;;;;4.15;2.05;;;20.90;52.90;;;;;;5093013;28;20054;-74
2022/05/14 09:30:37;;;;;;;5.43;2.38;;;22.60;54.40;;;;;;5093700;28;20572;-75
2022/05/14 09:33:04;;;;;;;6.10;2.20;;;21.90;53.00;;;;;;5093430;28;20055;-75
2022/05/14 09:35:33;;;;;;;7.43;2.42;;;21.80;48.60;;;;;;5090783;28;20161;-74
2022/05/14 09:38:10;;;;;;;6.00;2.42;;;21.80;48.70;;;;;;5073496;28;20045;-75
2022/05/14 09:40:37;;;;;;;5.43;2.30;;;21.70;53.60;;;;;;5074185;28;20152;-75
2022/05/14 09:43:13;;;;;;;5.95;2.17;;;22.20;53.00;;;;;;5072904;28;20056;-73
2022/05/14 09:45:41;;;;;;;9.55;2.53;;;21.80;48.70;;;;;;5073578;28;20063;-73
2022/05/14 09:48:12;;;;;;;6.70;2.30;;;21.80;48.70;;;;;;5073119;28;20136;-74
2022/05/14 09:50:40;;;;;;;7.18;2.30;;;22.30;54.20;;;;;;5071135;28;20131;-77
2022/05/14 09:53:08;;;;;;;16.92;3.30;;;21.60;53.60;;;;;;5074637;28;20132;-75
2022/05/14 09:56:01;;;;;;;5.95;2.28;;;20.70;53.20;;;;;;5073707;28;20059;-75
2022/05/14 09:58:31;;;;;;;4.35;2.08;;;21.80;48.80;;;;;;5080863;28;20046;-75
2022/05/14 10:01:01;;;;;;;10.63;2.30;;;21.70;48.90;;;;;;5077921;28;20063;-74
2022/05/14 10:04:00;;;;;;;9.55;2.25;;;21.70;48.90;;;;;;5094467;28;20453;-75
2022/05/14 10:06:34;;;;;;;7.68;2.50;;;21.70;49.00;;;;;;5094071;28;20044;-76
2022/05/14 10:09:10;;;;;;;8.50;3.10;;;20.80;48.50;;;;;;5117111;27;20139;-76
2022/05/14 10:11:37;;;;;;;9.90;2.63;;;21.60;48.90;;;;;;5075166;28;20472;-76
2022/05/14 10:14:21;;;;;;;8.45;2.53;;;21.70;49.00;;;;;;5075234;28;20131;-75
2022/05/14 10:17:02;;;;;;;9.13;2.45;;;21.60;48.90;;;;;;5076327;28;20063;-74
2022/05/14 10:19:44;;;;;;;5.85;2.72;;;21.80;53.40;;;;;;5075515;28;20135;-75
2022/05/14 10:22:13;;;;;;;8.30;2.22;;;21.60;48.90;;;;;;5080110;28;20054;-75
2022/05/14 10:27:48;;;;;;;25.20;6.80;;;21.50;53.10;;;;;;5060882;28;20056;-74
2022/05/14 10:30:17;;;;;;;19.65;6.30;;;21.70;49.00;;;;;;5092423;28;20135;-74
2022/05/14 10:32:45;;;;;;;16.08;5.28;;;21.80;52.80;;;;;;5092249;28;20078;-73
2022/05/14 10:35:15;;;;;;;17.77;5.78;;;21.70;49.00;;;;;;5092508;28;20052;-74
2022/05/14 10:37:47;;;;;;;12.65;4.22;;;21.80;53.20;;;;;;5109037;28;20052;-74
2022/05/14 10:40:20;;;;;;;13.80;4.30;;;21.70;49.00;;;;;;5092149;28;20056;-74
2022/05/14 10:42:49;;;;;;;14.43;4.57;;;21.70;49.00;;;;;;5092423;28;20054;-74
2022/05/14 10:45:19;;;;;;;12.10;4.20;;;22.00;53.60;;;;;;5092228;28;20097;-73
2022/05/14 10:47:48;;;;;;;15.45;4.93;;;22.30;54.20;;;;;;5092386;28;20066;-72
2022/05/14 10:50:18;;;;;;;13.32;3.85;;;21.70;49.00;;;;;;5091788;28;20110;-73
2022/05/14 10:52:45;;;;;;;12.57;3.90;;;21.70;54.50;;;;;;5092092;28;20052;-72
2022/05/14 10:55:28;;;;;;;13.57;3.85;;;21.70;49.00;;;;;;5085254;28;20132;-73
2022/05/14 10:57:56;;;;;;;13.07;4.15;;;21.00;53.40;;;;;;5090895;28;20131;-72
2022/05/14 11:00:35;;;;;;;10.70;3.60;;;21.70;49.00;;;;;;5091312;28;20060;-73
2022/05/14 11:03:06;;;;;;;16.80;4.18;;;22.30;53.90;;;;;;5091513;28;20126;-73
2022/05/14 11:05:34;;;;;;;9.50;3.72;;;21.60;53.10;;;;;;5092024;28;20131;-73
2022/05/14 11:08:09;;;;;;;11.90;3.35;;;21.60;53.50;;;;;;5091647;28;20390;-73
2022/05/14 11:10:37;;;;;;;9.40;3.20;;;21.10;54.10;;;;;;5089384;28;20135;-73
2022/05/14 11:13:11;;;;;;;8.70;3.40;;;21.70;49.30;;;;;;5099646;28;20051;-73
2022/05/14 11:15:39;;;;;;;9.00;3.72;;;21.70;49.20;;;;;;5126822;27;20051;-73
2022/05/14 11:18:07;;;;;;;11.40;3.47;;;22.20;53.40;;;;;;5096769;28;20055;-73
2022/05/14 11:20:33;;;;;;;9.93;3.30;;;21.70;49.30;;;;;;5098158;28;20047;-73
2022/05/14 11:23:05;;;;;;;10.63;3.35;;;21.70;49.30;;;;;;5102306;28;20062;-74
2022/05/14 11:25:32;;;;;;;10.50;3.40;;;21.70;49.20;;;;;;5100528;28;20412;-74
2022/05/14 11:28:03;;;;;;;9.73;3.33;;;21.70;49.20;;;;;;5100250;28;20123;-74
2022/05/14 11:30:32;;;;;;;9.73;3.22;;;20.50;53.60;;;;;;5098137;28;20048;-75
2022/05/14 11:32:59;;;;;;;8.63;2.78;;;21.20;53.20;;;;;;5099915;28;20437;-75
2022/05/14 11:35:39;;;;;;;7.93;2.97;;;21.50;54.60;;;;;;5097669;28;20048;-75
2022/05/14 11:38:13;;;;;;;8.68;3.00;;;22.40;55.50;;;;;;5103781;28;20051;-75
2022/05/14 11:40:39;;;;;;;8.38;2.95;;;21.40;53.90;;;;;;5103048;28;20054;-75
2022/05/14 11:43:21;;;;;;;9.82;3.28;;;21.60;49.30;;;;;;5097596;28;20397;-75
2022/05/14 11:45:52;;;;;;;9.82;3.00;;;21.60;49.30;;;;;;5097875;28;20138;-75
2022/05/14 11:48:23;;;;;;;9.23;3.03;;;21.60;53.40;;;;;;5102287;28;20056;-75
2022/05/14 11:50:51;;;;;;;7.55;2.92;;;21.80;53.40;;;;;;5089341;28;20056;-75
2022/05/14 11:53:21;;;;;;;6.55;2.60;;;21.70;49.30;;;;;;5090191;28;20082;-75
2022/05/14 11:55:49;;;;;;;9.93;3.38;;;18.60;51.70;;;;;;5090557;28;20143;-75
2022/05/14 11:58:20;;;;;;;7.38;2.67;;;21.70;49.30;;;;;;5124782;27;20051;-73
2022/05/14 12:00:48;;;;;;;8.30;2.78;;;21.70;49.30;;;;;;5090821;28;20059;-74
2022/05/14 12:03:17;;;;;;;6.50;2.90;;;21.70;49.40;;;;;;5090938;28;20047;-74
2022/05/14 12:05:45;;;;;;;7.57;2.80;;;21.70;49.40;;;;;;5085723;28;20044;-74
2022/05/14 12:08:22;;;;;;;8.32;2.90;;;22.10;53.70;;;;;;5070384;28;20091;-75
2022/05/14 12:10:52;;;;;;;9.95;3.42;;;21.70;49.30;;;;;;5070558;28;20083;-75
2022/05/14 12:13:23;;;;;;;9.15;2.88;;;20.80;54.10;;;;;;5069912;28;20062;-75
2022/05/14 12:15:51;;;;;;;7.90;3.40;;;21.70;55.10;;;;;;5070846;28;20135;-74
2022/05/14 12:18:18;;;;;;;7.72;2.95;;;21.50;53.30;;;;;;5071652;28;20460;-74
2022/05/14 12:20:45;;;;;;;10.35;3.03;;;21.70;49.40;;;;;;5078771;28;20052;-74
2022/05/14 12:23:17;;;;;;;9.73;2.65;;;21.60;49.40;;;;;;5094364;28;20048;-73
2022/05/14 12:25:45;;;;;;;7.05;2.80;;;21.60;49.30;;;;;;5097385;28;20082;-73
2022/05/14 12:28:21;;;;;;;9.45;2.90;;;21.60;49.30;;;;;;5100128;28;20055;-73
2022/05/14 12:33:39;;;;;;;9.07;2.97;;;21.40;53.90;;;;;;5101036;28;20043;-73
2022/05/14 12:36:08;;;;;;;10.30;3.00;;;21.60;49.40;;;;;;5099194;28;20548;-73
2022/05/14 12:38:36;;;;;;;7.53;3.38;;;21.60;49.30;;;;;;5099658;28;20073;-73
2022/05/14 12:41:03;;;;;;;9.57;3.22;;;21.50;53.60;;;;;;5096618;28;20044;-73
2022/05/14 12:43:31;;;;;;;5.75;2.60;;;20.70;48.80;;;;;;5101838;28;20040;-73
2022/05/14 12:46:03;;;;;;;7.25;2.83;;;21.70;53.70;;;;;;5101087;28;20051;-73
2022/05/14 12:48:30;;;;;;;7.78;2.63;;;21.60;49.40;;;;;;5110769;28;20055;-73
2022/05/14 12:50:59;;;;;;;7.30;3.00;;;21.50;53.30;;;;;;5110587;28;20062;-73
2022/05/14 12:53:34;;;;;;;6.47;2.67;;;21.50;54.20;;;;;;5096206;28;20051;-74
2022/05/14 12:56:00;;;;;;;7.47;2.58;;;21.50;53.50;;;;;;5090503;28;20074;-73
2022/05/14 12:58:27;;;;;;;6.57;2.80;;;21.60;54.20;;;;;;5090374;28;20565;-73
2022/05/14 13:00:55;;;;;;;8.05;2.80;;;21.50;55.00;;;;;;5090228;28;20062;-73
2022/05/14 13:03:25;;;;;;;11.35;3.00;;;20.70;54.20;;;;;;5090193;28;20052;-74
2022/05/14 13:05:55;;;;;;;11.25;2.90;;;21.80;54.40;;;;;;5124055;28;20052;-74
2022/05/14 13:08:23;;;;;;;11.35;2.60;;;21.40;53.10;;;;;;5088762;28;20485;-74
2022/05/14 13:10:51;;;;;;;10.15;3.13;;;20.60;52.00;;;;;;5091274;28;20050;-74
2022/05/14 13:13:18;;;;;;;7.03;2.50;;;21.60;53.50;;;;;;5075094;28;20102;-73